Time;durP1;ratioP1;P1;durP2;ratioP2;P2;SDS_P1;SDS_P2;PMS_P1;PMS_P2;Temp;Humidity;BMP_temperature;BMP_pressure;BME280_temperature;BME280_humidity;BME280_pressure;Samples;Min_cycle;Max_cycle;Signal;HPM_P1;HPM_P2
2022/09/04 00:02:43;;;;;;;7.10;5.05;;;17.00;58.70;;;;;;7366824;19;20387;-68
2022/09/04 00:05:21;;;;;;;6.53;4.85;;;17.00;59.00;;;;;;7361495;19;20481;-68
2022/09/04 00:08:04;;;;;;;6.45;4.88;;;17.00;58.90;;;;;;7363181;19;20120;-67
2022/09/04 00:10:42;;;;;;;6.75;5.00;;;16.90;59.00;;;;;;7365844;19;20362;-67
2022/09/04 00:13:20;;;;;;;6.65;4.90;;;16.90;59.50;;;;;;7388120;19;20434;-67
2022/09/04 00:15:59;;;;;;;6.80;5.03;;;16.90;59.40;;;;;;7359321;19;20017;-67
2022/09/04 00:18:36;;;;;;;6.88;5.07;;;16.80;59.50;;;;;;7363125;19;20017;-70
2022/09/04 00:21:15;;;;;;;12.60;5.88;;;16.80;59.80;;;;;;7365686;19;20082;-69
2022/09/04 00:23:51;;;;;;;7.68;5.20;;;16.80;60.60;;;;;;7363750;19;20015;-67
2022/09/04 00:26:32;;;;;;;8.55;5.40;;;16.80;61.10;;;;;;7359956;19;20547;-68
2022/09/04 00:29:13;;;;;;;6.93;5.28;;;16.80;61.50;;;;;;7362618;19;20605;-67
2022/09/04 00:31:51;;;;;;;6.28;5.43;;;16.70;61.70;;;;;;7365800;19;20019;-68
2022/09/04 00:34:38;;;;;;;10.82;6.05;;;16.70;62.20;;;;;;7367084;19;20092;-67
2022/09/04 00:37:12;;;;;;;7.82;5.70;;;16.70;62.90;;;;;;7377688;19;20066;-67
2022/09/04 00:39:50;;;;;;;7.70;6.20;;;16.70;63.60;;;;;;7365384;19;20473;-67
2022/09/04 00:42:36;;;;;;;10.07;5.80;;;16.60;63.60;;;;;;7364955;19;20016;-67
2022/09/04 00:45:23;;;;;;;8.35;6.13;;;16.60;63.60;;;;;;7358271;19;20010;-67
2022/09/04 00:48:30;;;;;;;8.52;6.32;;;16.60;63.80;;;;;;7360529;19;20466;-67
2022/09/04 00:51:21;;;;;;;6.47;4.90;;;16.60;63.90;;;;;;7364680;19;20458;-67
2022/09/04 00:54:12;;;;;;;11.98;5.90;;;16.50;64.40;;;;;;7363303;19;20021;-66
2022/09/04 00:57:12;;;;;;;8.48;6.50;;;16.50;64.90;;;;;;7358742;19;20029;-67
2022/09/04 01:00:06;;;;;;;8.48;6.07;;;16.50;65.60;;;;;;7364946;19;20014;-68
2022/09/04 01:02:54;;;;;;;8.00;6.40;;;16.40;65.80;;;;;;7364312;19;20017;-68
2022/09/04 01:05:43;;;;;;;7.70;5.97;;;16.50;66.50;;;;;;7358557;19;20850;-68
2022/09/04 01:08:25;;;;;;;9.52;6.43;;;16.50;67.40;;;;;;7361617;19;20003;-67
2022/09/04 01:11:07;;;;;;;8.63;5.47;;;16.40;66.90;;;;;;7363119;19;20419;-69
2022/09/04 01:13:43;;;;;;;9.07;5.47;;;16.30;66.60;;;;;;7363717;19;20082;-68
2022/09/04 01:16:21;;;;;;;7.05;5.40;;;16.20;66.70;;;;;;7380209;19;20094;-68
2022/09/04 01:19:00;;;;;;;7.85;5.88;;;16.20;66.70;;;;;;7362096;19;20383;-67
2022/09/04 01:22:13;;;;;;;8.93;6.07;;;16.20;67.40;;;;;;7363461;19;20066;-68
2022/09/04 01:25:00;;;;;;;8.25;6.35;;;16.10;67.40;;;;;;7359782;19;20031;-67
2022/09/04 01:27:38;;;;;;;8.50;6.10;;;16.10;67.90;;;;;;7358529;19;20022;-67
2022/09/04 01:30:11;;;;;;;8.48;6.28;;;16.10;68.40;;;;;;7364766;19;20070;-67
2022/09/04 01:32:50;;;;;;;7.53;6.57;;;16.10;68.80;;;;;;7364927;19;20025;-67
2022/09/04 01:35:31;;;;;;;7.75;5.63;;;16.10;69.00;;;;;;7358171;19;20010;-67
2022/09/04 01:38:13;;;;;;;8.57;6.80;;;16.10;68.90;;;;;;7368211;19;20021;-67
2022/09/04 01:40:48;;;;;;;10.02;6.47;;;16.10;69.10;;;;;;7372946;19;20011;-68
2022/09/04 01:43:23;;;;;;;7.50;6.22;;;16.10;69.30;;;;;;7393514;19;20478;-67
2022/09/04 01:46:22;;;;;;;10.18;7.22;;;16.10;69.30;;;;;;7364662;19;20014;-67
2022/09/04 01:48:58;;;;;;;9.52;7.07;;;16.10;69.40;;;;;;7369363;19;20183;-68
2022/09/04 01:51:38;;;;;;;11.30;7.60;;;16.10;69.70;;;;;;7371862;19;20012;-67
2022/09/04 01:54:23;;;;;;;10.20;8.23;;;16.20;70.20;;;;;;7369003;19;21139;-67
2022/09/04 01:57:09;;;;;;;11.25;7.57;;;16.10;70.10;;;;;;7365222;19;20003;-67
2022/09/04 01:59:55;;;;;;;9.98;8.00;;;16.20;70.30;;;;;;7371669;19;20024;-67
2022/09/04 02:02:30;;;;;;;8.98;7.50;;;16.10;70.90;;;;;;7372268;19;20017;-68
2022/09/04 02:05:07;;;;;;;9.23;7.53;;;16.10;70.30;;;;;;7363457;19;20022;-68
2022/09/04 02:07:46;;;;;;;10.20;7.68;;;16.10;70.40;;;;;;7366477;19;20082;-68
2022/09/04 02:10:29;;;;;;;10.15;7.78;;;16.10;70.40;;;;;;7393719;19;20062;-68
2022/09/04 02:13:12;;;;;;;12.27;7.25;;;16.10;70.50;;;;;;7372437;19;20010;-68
2022/09/04 02:15:54;;;;;;;9.57;7.22;;;16.00;70.40;;;;;;7363659;19;20014;-67
2022/09/04 02:18:34;;;;;;;10.90;7.57;;;16.00;70.40;;;;;;7368348;19;20083;-67
2022/09/04 02:21:12;;;;;;;9.20;7.28;;;16.00;70.50;;;;;;7371481;19;20094;-67
2022/09/04 02:23:48;;;;;;;9.70;6.90;;;16.00;70.50;;;;;;7369561;19;20002;-68
2022/09/04 02:26:21;;;;;;;10.38;7.00;;;15.90;70.30;;;;;;7366320;19;20082;-68
2022/09/04 02:29:00;;;;;;;8.82;7.30;;;16.00;70.40;;;;;;7367163;19;20494;-67
2022/09/04 02:31:43;;;;;;;9.05;6.63;;;15.90;70.50;;;;;;7371310;19;20082;-68
2022/09/04 02:34:21;;;;;;;10.18;7.50;;;15.90;70.50;;;;;;7390122;19;20074;-67
2022/09/04 02:36:58;;;;;;;10.75;7.32;;;15.90;70.30;;;;;;7364841;19;20078;-67
2022/09/04 02:39:38;;;;;;;10.02;7.32;;;15.90;70.50;;;;;;7369726;19;20069;-67
2022/09/04 02:42:19;;;;;;;9.40;7.78;;;15.90;70.50;;;;;;7370062;19;20007;-67
2022/09/04 02:45:06;;;;;;;8.85;7.18;;;15.90;70.60;;;;;;7364863;19;20086;-66
2022/09/04 02:47:48;;;;;;;9.60;7.25;;;15.90;70.50;;;;;;7365010;19;20144;-67
2022/09/04 02:50:31;;;;;;;9.38;7.68;;;15.90;70.50;;;;;;7370989;19;20033;-68
2022/09/04 02:53:15;;;;;;;13.15;7.40;;;15.90;70.40;;;;;;7370601;19;20031;-68
2022/09/04 02:56:00;;;;;;;11.10;7.68;;;15.90;70.50;;;;;;7363083;19;20036;-68
2022/09/04 02:58:45;;;;;;;9.50;7.50;;;15.90;71.10;;;;;;7366226;19;20390;-67
2022/09/04 03:01:23;;;;;;;10.18;7.70;;;15.90;70.40;;;;;;7392129;19;20070;-67
2022/09/04 03:04:03;;;;;;;10.98;7.78;;;15.90;70.40;;;;;;7367764;19;20026;-68
2022/09/04 03:06:47;;;;;;;10.55;7.63;;;15.90;70.50;;;;;;7363117;19;20010;-67
2022/09/04 03:09:22;;;;;;;12.43;7.97;;;15.80;70.30;;;;;;7366915;19;20101;-68
2022/09/04 03:11:59;;;;;;;12.85;7.32;;;15.80;70.30;;;;;;7369366;19;20082;-67
2022/09/04 03:14:34;;;;;;;9.25;7.38;;;15.80;70.10;;;;;;7366959;19;20372;-67
2022/09/04 03:17:12;;;;;;;9.77;7.57;;;15.70;70.00;;;;;;7363842;19;20006;-67
2022/09/04 03:19:52;;;;;;;10.65;7.43;;;15.70;70.10;;;;;;7370566;19;20052;-66
2022/09/04 03:22:29;;;;;;;9.48;7.07;;;15.70;70.20;;;;;;7371752;19;20007;-68
2022/09/04 03:25:41;;;;;;;9.45;7.45;;;15.70;70.10;;;;;;7383824;19;20017;-67
2022/09/04 03:28:18;;;;;;;11.38;7.57;;;15.60;70.10;;;;;;7364986;19;20458;-67
2022/09/04 03:30:49;;;;;;;8.52;7.25;;;15.70;70.30;;;;;;7369652;19;20006;-68
2022/09/04 03:33:25;;;;;;;9.73;7.20;;;15.60;70.00;;;;;;7368777;19;20003;-68
2022/09/04 03:36:05;;;;;;;9.52;7.45;;;15.60;70.20;;;;;;7361953;19;20107;-67
2022/09/04 03:38:47;;;;;;;9.70;7.30;;;15.60;70.20;;;;;;7365610;19;20520;-68
2022/09/04 03:41:31;;;;;;;11.85;7.03;;;15.60;70.20;;;;;;7369199;19;20443;-67
2022/09/04 03:44:06;;;;;;;;;;;15.60;70.20;;;;;;7365644;19;20010;-67
2022/09/04 03:46:42;;;;;;;;;;;15.60;70.30;;;;;;7364763;19;19928;-67
2022/09/04 03:49:20;;;;;;;9.38;7.70;;;15.60;70.30;;;;;;7388073;19;19939;-68
2022/09/04 03:52:03;;;;;;;9.60;8.13;;;15.60;70.30;;;;;;7368425;19;20078;-67
2022/09/04 03:54:55;;;;;;;12.27;8.30;;;15.60;70.10;;;;;;7363992;19;20030;-67
2022/09/04 03:57:43;;;;;;;10.52;7.53;;;15.50;70.10;;;;;;7362180;19;20017;-68
2022/09/04 04:00:17;;;;;;;12.10;7.68;;;15.50;70.20;;;;;;7365870;19;20017;-68
2022/09/04 04:03:06;;;;;;;9.40;8.18;;;15.50;70.10;;;;;;7367672;19;20087;-68
2022/09/04 04:05:55;;;;;;;10.55;7.68;;;15.50;70.10;;;;;;7361374;19;20010;-68
2022/09/04 04:08:55;;;;;;;9.05;7.63;;;15.40;70.00;;;;;;7363811;19;20006;-68
2022/09/04 04:11:56;;;;;;;10.95;8.02;;;15.40;69.90;;;;;;7367560;19;20018;-68
2022/09/04 04:14:40;;;;;;;10.05;8.15;;;15.40;69.90;;;;;;7364256;19;20821;-67
2022/09/04 04:17:25;;;;;;;10.05;7.90;;;15.40;70.00;;;;;;7362609;19;20006;-67
2022/09/04 04:20:09;;;;;;;12.05;7.57;;;15.40;70.00;;;;;;7367889;19;20030;-67
2022/09/04 04:23:06;;;;;;;11.85;8.18;;;15.40;70.00;;;;;;7366199;19;20358;-66
2022/09/04 04:25:52;;;;;;;11.50;7.97;;;15.40;70.00;;;;;;7359667;19;20013;-66
2022/09/04 04:28:40;;;;;;;11.02;8.27;;;15.40;70.10;;;;;;7368423;19;20014;-68
2022/09/04 04:31:20;;;;;;;10.40;7.70;;;15.40;69.80;;;;;;7389554;19;20034;-68
2022/09/04 04:34:00;;;;;;;8.82;7.93;;;15.40;69.90;;;;;;7365332;19;20015;-68
2022/09/04 04:36:38;;;;;;;9.82;7.50;;;15.40;70.00;;;;;;7360189;19;20798;-67
2022/09/04 04:39:20;;;;;;;9.70;7.53;;;15.40;70.00;;;;;;7364409;19;20026;-67
2022/09/04 04:42:07;;;;;;;9.50;7.80;;;15.40;69.90;;;;;;7366171;19;20014;-68
2022/09/04 04:48:13;;;;;;;9.93;8.02;;;15.40;69.60;;;;;;7361428;19;20085;-67
2022/09/04 04:50:52;;;;;;;10.10;8.20;;;15.40;69.70;;;;;;7365887;19;20014;-67
2022/09/04 04:53:32;;;;;;;19.48;9.10;;;15.40;69.50;;;;;;7366587;19;20082;-67
2022/09/04 04:56:13;;;;;;;9.90;7.70;;;15.30;69.30;;;;;;7359207;19;20011;-67
2022/09/04 04:59:03;;;;;;;12.55;8.43;;;15.30;69.30;;;;;;7364067;19;20015;-68
2022/09/04 05:01:45;;;;;;;12.10;8.70;;;15.40;69.50;;;;;;7366613;19;20014;-67
2022/09/04 05:04:24;;;;;;;11.70;8.57;;;15.70;67.00;;;;;;7385319;19;20031;-68
2022/09/04 05:07:01;;;;;;;9.70;8.32;;;16.30;61.50;;;;;;7361131;19;20065;-68
2022/09/04 05:09:38;;;;;;;11.38;7.53;;;16.90;55.40;;;;;;7364804;19;20014;-67
2022/09/04 05:12:16;;;;;;;8.95;6.82;;;17.60;47.90;;;;;;7364495;19;20016;-68
2022/09/04 05:14:56;;;;;;;7.45;6.43;;;17.90;38.60;;;;;;7361622;19;20010;-69
2022/09/04 05:17:36;;;;;;;8.13;6.60;;;18.10;36.30;;;;;;7361060;19;20086;-68
2022/09/04 05:20:40;;;;;;;8.18;6.78;;;17.50;37.60;;;;;;7364972;19;20015;-68
2022/09/04 05:23:24;;;;;;;7.65;5.90;;;16.80;42.30;;;;;;7364022;19;20007;-68
2022/09/04 05:26:08;;;;;;;7.95;6.40;;;16.70;44.70;;;;;;7357443;19;20030;-68
2022/09/04 05:28:46;;;;;;;7.65;6.15;;;17.10;37.20;;;;;;7362616;19;20482;-67
2022/09/04 05:31:30;;;;;;;7.65;6.43;;;17.30;39.20;;;;;;7387773;19;20031;-67
2022/09/04 05:34:06;;;;;;;6.60;5.80;;;16.90;42.90;;;;;;7363038;19;20034;-68
2022/09/04 05:36:48;;;;;;;6.63;5.47;;;16.70;44.10;;;;;;7358362;19;20010;-68
2022/09/04 05:39:29;;;;;;;7.38;5.78;;;16.80;46.50;;;;;;7362230;19;20025;-67
2022/09/04 05:42:13;;;;;;;7.82;6.18;;;16.70;45.40;;;;;;7363939;19;20025;-68
2022/09/04 05:44:58;;;;;;;7.63;6.03;;;16.50;47.00;;;;;;7361517;19;20014;-68
2022/09/04 05:47:45;;;;;;;8.18;6.32;;;16.50;48.40;;;;;;7361030;19;20014;-68
2022/09/04 05:50:37;;;;;;;6.88;5.85;;;16.60;48.70;;;;;;7364517;19;19999;-69
2022/09/04 05:53:27;;;;;;;6.28;5.50;;;16.50;46.50;;;;;;7365600;19;20471;-68
2022/09/04 05:56:18;;;;;;;7.72;5.63;;;16.60;47.20;;;;;;7358827;19;20089;-67
2022/09/04 05:59:05;;;;;;;6.97;5.13;;;16.60;49.00;;;;;;7362845;19;20010;-69
2022/09/04 06:01:55;;;;;;;6.05;5.45;;;16.60;47.70;;;;;;7365306;19;20032;-68
2022/09/04 06:04:51;;;;;;;5.93;5.32;;;16.50;47.00;;;;;;7361307;19;20073;-67
2022/09/04 06:07:31;;;;;;;6.22;5.53;;;16.50;48.30;;;;;;7370960;19;20823;-68
2022/09/04 06:10:04;;;;;;;5.65;5.10;;;16.70;49.30;;;;;;7386668;19;20510;-68
2022/09/04 06:13:04;;;;;;;6.18;4.53;;;16.70;46.00;;;;;;7364396;19;20383;-68
2022/09/04 06:15:40;;;;;;;6.07;5.15;;;17.00;47.50;;;;;;7355409;19;20102;-67
2022/09/04 06:18:26;;;;;;;6.38;5.20;;;17.10;43.60;;;;;;7360468;19;20132;-68
2022/09/04 06:21:23;;;;;;;7.13;5.05;;;17.30;42.10;;;;;;7364539;19;20007;-67
2022/09/04 06:24:12;;;;;;;7.47;4.80;;;17.20;39.20;;;;;;7367884;19;20018;-68
2022/09/04 06:27:07;;;;;;;4.88;4.38;;;17.30;41.00;;;;;;7365281;19;20010;-68
2022/09/04 06:30:03;;;;;;;5.60;5.00;;;17.30;42.70;;;;;;7371539;19;20026;-68
2022/09/04 06:33:02;;;;;;;5.32;4.75;;;17.30;39.20;;;;;;7371385;19;20011;-67
2022/09/04 06:35:48;;;;;;;5.47;4.90;;;17.30;39.30;;;;;;7364477;19;20500;-66
2022/09/04 06:38:40;;;;;;;4.35;3.95;;;17.40;38.50;;;;;;7366608;19;20090;-67
2022/09/04 06:41:27;;;;;;;5.25;4.75;;;17.60;37.40;;;;;;7370460;19;20485;-67
2022/09/04 06:44:08;;;;;;;6.25;4.70;;;17.90;36.20;;;;;;7368667;19;20006;-67
2022/09/04 06:46:46;;;;;;;5.28;4.20;;;18.00;35.10;;;;;;7365567;19;20006;-67
2022/09/04 06:49:23;;;;;;;4.90;4.40;;;17.90;33.30;;;;;;7389863;19;20027;-67
2022/09/04 06:52:07;;;;;;;4.88;4.35;;;18.00;32.50;;;;;;7370350;19;20082;-69
2022/09/04 06:54:50;;;;;;;5.63;4.45;;;17.90;33.40;;;;;;7366804;19;20510;-67
2022/09/04 06:57:39;;;;;;;5.25;4.40;;;18.10;35.60;;;;;;7363904;19;20265;-67
2022/09/04 07:00:11;;;;;;;5.05;4.18;;;18.40;32.50;;;;;;7369937;19;20019;-67
2022/09/04 07:03:03;;;;;;;5.75;4.47;;;18.50;31.70;;;;;;7369568;19;20017;-68
2022/09/04 07:05:43;;;;;;;5.65;4.15;;;18.60;28.00;;;;;;7363694;19;20510;-66
2022/09/04 07:08:24;;;;;;;7.30;4.60;;;18.80;27.40;;;;;;7365999;19;20006;-67
2022/09/04 07:11:20;;;;;;;4.95;4.32;;;18.70;25.80;;;;;;7369434;19;20094;-67
2022/09/04 07:14:15;;;;;;;5.22;4.10;;;18.80;26.80;;;;;;7367688;19;20018;-67
2022/09/04 07:16:56;;;;;;;4.93;4.30;;;18.80;25.40;;;;;;7364596;19;20105;-67
2022/09/04 07:19:43;;;;;;;5.30;4.20;;;18.80;25.40;;;;;;7368560;19;20021;-67
2022/09/04 07:22:30;;;;;;;4.90;4.40;;;18.90;24.90;;;;;;7392352;19;20070;-67
2022/09/04 07:25:11;;;;;;;4.55;4.00;;;19.20;25.00;;;;;;7364185;19;20010;-67
2022/09/04 07:27:59;;;;;;;4.65;3.92;;;19.10;22.70;;;;;;7362520;19;20093;-66
2022/09/04 07:30:33;;;;;;;4.88;3.95;;;19.20;21.30;;;;;;7369309;19;20021;-67
2022/09/04 07:33:08;;;;;;;4.72;4.00;;;19.40;21.50;;;;;;7368281;19;20011;-67
2022/09/04 07:35:44;;;;;;;4.65;3.80;;;19.60;21.60;;;;;;7362834;19;20046;-67
2022/09/04 07:38:25;;;;;;;4.30;3.55;;;19.70;20.10;;;;;;7365088;19;20010;-67
2022/09/04 07:41:02;;;;;;;4.30;3.83;;;19.50;20.00;;;;;;7369158;19;20470;-67
2022/09/04 07:43:42;;;;;;;6.30;5.22;;;19.80;19.00;;;;;;7369283;19;20023;-68
2022/09/04 07:46:21;;;;;;;5.15;4.47;;;19.90;17.00;;;;;;7385523;19;20097;-68
2022/09/04 07:48:57;;;;;;;4.65;3.95;;;20.00;18.30;;;;;;7365747;19;20034;-68
2022/09/04 07:51:33;;;;;;;5.15;3.53;;;20.20;17.60;;;;;;7367306;19;20025;-68
2022/09/04 07:54:30;;;;;;;5.72;3.83;;;20.10;14.60;;;;;;7365844;19;20109;-68
2022/09/04 07:57:12;;;;;;;8.35;5.07;;;20.40;14.90;;;;;;7362353;19;20010;-67
2022/09/04 08:00:01;;;;;;;4.25;3.40;;;20.20;12.60;;;;;;7368616;19;20101;-68
2022/09/04 08:03:03;;;;;;;5.72;3.95;;;20.20;11.10;;;;;;7368240;19;20007;-66
2022/09/04 08:05:35;;;;;;;3.95;3.22;;;20.30;14.70;;;;;;7361721;19;20085;-67
2022/09/04 08:08:26;;;;;;;5.30;4.10;;;20.60;11.50;;;;;;7362346;19;20013;-67
2022/09/04 08:11:13;;;;;;;4.63;3.70;;;20.60;12.90;;;;;;7368390;19;20078;-68
2022/09/04 08:14:02;;;;;;;4.07;3.67;;;20.70;11.70;;;;;;7368036;19;20081;-67
2022/09/04 08:16:42;;;;;;;3.90;3.53;;;20.90;11.00;;;;;;7363765;19;20010;-67
2022/09/04 08:19:32;;;;;;;5.13;4.05;;;21.00;8.70;;;;;;7387167;19;20078;-67
2022/09/04 08:22:04;;;;;;;4.43;4.03;;;20.90;9.30;;;;;;7368082;19;20011;-67
2022/09/04 08:25:05;;;;;;;4.00;3.60;;;21.30;8.00;;;;;;7364126;19;20014;-68
2022/09/04 08:27:54;;;;;;;3.63;3.03;;;21.30;6.70;;;;;;7361607;19;20041;-69
2022/09/04 08:30:25;;;;;;;4.70;3.45;;;21.40;4.90;;;;;;7366596;19;20023;-67
2022/09/04 08:33:27;;;;;;;3.47;2.90;;;21.40;6.60;;;;;;7366752;19;20470;-67
2022/09/04 08:36:02;;;;;;;4.60;3.45;;;21.30;4.50;;;;;;7360073;19;20082;-68
2022/09/04 08:38:44;;;;;;;4.88;3.33;;;21.60;3.10;;;;;;7363739;19;20081;-67
2022/09/04 08:41:59;;;;;;;3.40;2.72;;;22.00;1.10;;;;;;7364949;19;20526;-69
2022/09/04 08:44:57;;;;;;;3.35;2.95;;;21.70;1.10;;;;;;7360352;19;20034;-67
2022/09/04 08:48:08;;;;;;;3.25;2.83;;;21.50;1.00;;;;;;7359684;19;20471;-67
2022/09/04 08:51:35;;;;;;;3.67;2.92;;;22.00;1.00;;;;;;7363643;19;20040;-67
2022/09/04 08:54:22;;;;;;;;;;;22.30;1.00;;;;;;7360654;19;20014;-67
2022/09/04 08:57:10;;;;;;;3.03;2.70;;;21.80;1.00;;;;;;7361683;19;19987;-66
2022/09/04 09:00:09;;;;;;;3.58;2.78;;;21.70;1.00;;;;;;7365789;19;20029;-66
2022/09/04 09:03:24;;;;;;;3.08;2.35;;;21.70;1.00;;;;;;7365135;19;20010;-67
2022/09/04 09:06:27;;;;;;;5.90;2.13;;;21.60;1.30;;;;;;7356166;19;20018;-66
2022/09/04 09:09:39;;;;;;;3.42;2.40;;;21.70;1.70;;;;;;7361355;19;20814;-68
2022/09/04 09:12:35;;;;;;;4.22;2.80;;;21.60;1.00;;;;;;7364231;19;20018;-67
2022/09/04 09:15:28;;;;;;;4.00;2.10;;;22.00;1.00;;;;;;7356977;19;20015;-67
2022/09/04 09:18:10;;;;;;;2.97;2.10;;;22.20;1.00;;;;;;7360866;19;20017;-67
2022/09/04 09:20:50;;;;;;;3.75;2.20;;;22.20;1.00;;;;;;7364053;19;20011;-67
2022/09/04 09:23:22;;;;;;;2.58;2.00;;;22.10;1.00;;;;;;7364289;19;20010;-67
2022/09/04 09:26:05;;;;;;;2.00;1.80;;;22.50;1.00;;;;;;7359353;19;20099;-67
2022/09/04 09:28:53;;;;;;;;;;;22.40;1.00;;;;;;7359581;19;20021;-68
2022/09/04 09:31:55;;;;;;;4.57;1.80;;;22.80;1.00;;;;;;7364464;19;20334;-68
2022/09/04 09:35:01;;;;;;;2.35;1.83;;;22.90;1.00;;;;;;7361718;19;20019;-67
2022/09/04 09:37:55;;;;;;;4.00;1.90;;;23.20;1.00;;;;;;7358788;19;20014;-67
2022/09/04 09:40:59;;;;;;;2.10;1.90;;;23.40;1.00;;;;;;7364395;19;20378;-67
2022/09/04 09:44:08;;;;;;;3.85;2.47;;;22.50;1.00;;;;;;7363153;19;20086;-67
2022/09/04 09:47:11;;;;;;;5.30;2.60;;;22.90;1.00;;;;;;7359632;19;20016;-68
2022/09/04 09:50:19;;;;;;;3.33;1.92;;;23.20;1.00;;;;;;7361764;19;20023;-67
2022/09/04 09:53:23;;;;;;;2.28;1.50;;;23.50;1.00;;;;;;7361736;19;20082;-67
2022/09/04 09:56:16;;;;;;;2.35;1.58;;;22.70;1.00;;;;;;7356375;19;20122;-67
2022/09/04 09:59:35;;;;;;;2.92;1.67;;;22.60;1.00;;;;;;7365979;19;20361;-67
2022/09/04 10:02:44;;;;;;;1.85;1.58;;;22.70;1.00;;;;;;7367273;19;20459;-67
2022/09/04 10:05:47;;;;;;;2.35;1.60;;;23.20;1.00;;;;;;7365160;19;20489;-67
2022/09/04 10:08:48;;;;;;;1.60;1.50;;;23.30;1.00;;;;;;7367510;19;20446;-68
2022/09/04 10:11:35;;;;;;;2.40;1.27;;;23.50;1.00;;;;;;7372640;19;20011;-67
2022/09/04 10:14:31;;;;;;;3.17;1.58;;;24.00;1.00;;;;;;7369396;19;20060;-67
2022/09/04 10:17:25;;;;;;;2.83;1.50;;;24.30;1.00;;;;;;7366593;19;20014;-68
2022/09/04 10:20:25;;;;;;;3.55;1.50;;;24.00;1.00;;;;;;7372205;19;20030;-67
2022/09/04 10:23:36;;;;;;;1.42;1.20;;;23.80;1.00;;;;;;7372773;19;20074;-67
2022/09/04 10:26:27;;;;;;;1.40;1.30;;;24.20;1.00;;;;;;7363008;19;20021;-68
2022/09/04 10:29:27;;;;;;;1.60;1.33;;;24.60;1.00;;;;;;7364062;19;20039;-67
2022/09/04 10:32:20;;;;;;;1.67;1.45;;;24.10;1.00;;;;;;7370432;19;20014;-68
2022/09/04 10:35:12;;;;;;;4.82;1.67;;;24.40;1.00;;;;;;7364526;19;20007;-67
2022/09/04 10:38:10;;;;;;;1.50;1.15;;;24.60;1.00;;;;;;7363954;19;20123;-67
2022/09/04 10:41:07;;;;;;;1.55;1.25;;;24.70;1.00;;;;;;7370192;19;20418;-68
2022/09/04 10:44:04;;;;;;;1.52;1.05;;;24.40;1.00;;;;;;7369203;19;20074;-68
2022/09/04 10:46:43;;;;;;;2.65;1.10;;;24.40;1.00;;;;;;7362716;19;20022;-68
2022/09/04 10:49:49;;;;;;;1.63;1.10;;;24.10;1.00;;;;;;7385454;19;20018;-69
2022/09/04 10:52:42;;;;;;;1.58;1.23;;;23.70;1.00;;;;;;7265951;19;2004406;-69
2022/09/04 10:55:28;;;;;;;1.70;1.00;;;23.70;1.00;;;;;;7383067;19;20018;-68
2022/09/04 10:58:30;;;;;;;1.90;1.10;;;23.90;1.00;;;;;;7362614;19;20486;-67
2022/09/04 11:01:37;;;;;;;1.58;0.90;;;24.50;1.00;;;;;;7368532;19;20007;-67
2022/09/04 11:04:45;;;;;;;1.48;1.00;;;24.30;1.00;;;;;;7365666;19;20462;-69
2022/09/04 11:07:36;;;;;;;1.95;1.17;;;24.30;1.00;;;;;;7362670;19;20022;-69
2022/09/04 11:10:24;;;;;;;1.20;1.00;;;24.30;1.00;;;;;;7370228;19;20006;-67
2022/09/04 11:13:29;;;;;;;1.20;1.10;;;24.70;1.00;;;;;;7370311;19;20792;-68
2022/09/04 11:16:19;;;;;;;1.77;1.08;;;25.00;1.00;;;;;;7361484;19;20026;-68
2022/09/04 11:19:25;;;;;;;2.65;1.23;;;25.60;1.00;;;;;;7366223;19;20016;-67
2022/09/04 11:22:38;;;;;;;1.13;0.98;;;25.10;1.00;;;;;;7369681;19;20010;-67
2022/09/04 11:25:44;;;;;;;1.48;0.93;;;25.40;1.00;;;;;;7364580;19;20405;-67
2022/09/04 11:28:50;;;;;;;1.23;1.10;;;25.40;1.00;;;;;;7363489;19;20007;-67
2022/09/04 11:31:51;;;;;;;1.73;0.88;;;25.10;1.00;;;;;;7266642;19;2004433;-67
2022/09/04 11:35:12;;;;;;;2.15;1.10;;;25.40;1.00;;;;;;7385004;19;20033;-68
2022/09/04 11:38:00;;;;;;;1.23;1.00;;;25.10;1.00;;;;;;7363664;19;20032;-67
2022/09/04 11:40:56;;;;;;;1.10;0.90;;;25.10;1.00;;;;;;7368881;19;20454;-69
2022/09/04 11:43:57;;;;;;;2.33;1.02;;;24.50;1.00;;;;;;7368533;19;20643;-67
2022/09/04 11:46:42;;;;;;;1.10;0.90;;;24.30;1.00;;;;;;7364375;19;20006;-66
2022/09/04 11:49:57;;;;;;;1.10;0.90;;;24.30;1.00;;;;;;7386211;19;20025;-68
2022/09/04 11:52:45;;;;;;;4.07;1.00;;;24.60;1.00;;;;;;7262664;19;2004238;-67
2022/09/04 11:55:33;;;;;;;1.38;0.98;;;24.60;1.00;;;;;;7383740;19;20065;-68
2022/09/04 11:58:32;;;;;;;1.35;1.23;;;24.90;1.00;;;;;;7363377;19;20458;-68
2022/09/04 12:01:19;;;;;;;2.55;1.10;;;25.10;1.00;;;;;;7368623;19;20066;-68
2022/09/04 12:04:13;;;;;;;2.08;1.10;;;25.50;1.00;;;;;;7366989;19;20010;-68
2022/09/04 12:06:51;;;;;;;;;;;25.50;1.00;;;;;;7364795;19;20010;-68
2022/09/04 12:09:52;;;;;;;1.20;1.00;;;25.90;1.00;;;;;;7362755;19;19954;-67
2022/09/04 12:13:01;;;;;;;3.10;1.25;;;25.70;1.00;;;;;;7369261;19;20003;-67
2022/09/04 12:16:15;;;;;;;1.08;0.98;;;25.40;1.00;;;;;;7362893;19;20268;-67
2022/09/04 12:19:25;;;;;;;1.77;0.95;;;25.80;1.00;;;;;;7364566;19;20011;-67
2022/09/04 12:22:30;;;;;;;1.63;0.90;;;25.80;1.00;;;;;;7366150;19;20021;-67
2022/09/04 12:25:41;;;;;;;1.88;1.20;;;25.90;1.00;;;;;;7362614;19;20031;-67
2022/09/04 12:28:39;;;;;;;1.50;0.90;;;25.80;1.00;;;;;;7360972;19;20026;-67
2022/09/04 12:31:34;;;;;;;2.42;1.10;;;25.70;1.00;;;;;;7368364;19;20078;-69
2022/09/04 12:34:12;;;;;;;;;;;25.30;1.00;;;;;;7366285;19;20016;-67
2022/09/04 12:37:13;;;;;;;1.20;1.10;;;24.90;1.00;;;;;;7363422;19;19978;-66
2022/09/04 12:40:15;;;;;;;1.55;1.13;;;25.30;1.00;;;;;;7366344;19;20006;-68
2022/09/04 12:42:58;;;;;;;3.08;1.27;;;25.00;1.00;;;;;;7366899;19;20020;-66
2022/09/04 12:45:40;;;;;;;1.80;1.15;;;25.00;1.00;;;;;;7362044;19;20386;-67
2022/09/04 12:48:19;;;;;;;1.15;1.05;;;24.90;1.00;;;;;;7361122;19;20006;-67
2022/09/04 12:50:56;;;;;;;2.65;1.30;;;25.10;1.00;;;;;;7365346;19;20509;-67
2022/09/04 12:53:50;;;;;;;5.25;1.50;;;24.70;1.00;;;;;;7366825;19;20057;-67
2022/09/04 12:56:29;;;;;;;2.05;1.30;;;25.10;1.00;;;;;;7361260;19;20065;-67
2022/09/04 12:59:21;;;;;;;1.55;1.17;;;25.10;1.00;;;;;;7363269;19;20013;-67
2022/09/04 13:02:02;;;;;;;2.00;1.30;;;25.10;1.00;;;;;;7366009;19;20017;-67
2022/09/04 13:04:42;;;;;;;1.27;0.90;;;25.10;1.00;;;;;;7364098;19;20014;-67
2022/09/04 13:07:23;;;;;;;1.20;1.10;;;25.40;1.00;;;;;;7380713;19;20029;-67
2022/09/04 13:10:05;;;;;;;2.15;1.33;;;25.70;1.00;;;;;;7362069;19;20010;-67
2022/09/04 13:12:45;;;;;;;2.05;1.40;;;25.50;1.00;;;;;;7365585;19;20007;-66
2022/09/04 13:15:23;;;;;;;2.33;1.55;;;25.80;1.00;;;;;;7362762;19;20022;-68
2022/09/04 13:18:03;;;;;;;2.35;1.27;;;25.90;1.00;;;;;;7361571;19;20466;-67
2022/09/04 13:20:40;;;;;;;1.25;0.98;;;26.20;1.00;;;;;;7365128;19;20077;-67
2022/09/04 13:23:24;;;;;;;2.15;1.10;;;26.30;1.00;;;;;;7367291;19;20070;-67
2022/09/04 13:26:09;;;;;;;2.05;1.40;;;26.20;1.00;;;;;;7361278;19;20046;-68
2022/09/04 13:28:51;;;;;;;1.20;1.10;;;25.70;1.00;;;;;;7362012;19;20018;-67
2022/09/04 13:31:37;;;;;;;1.10;1.00;;;25.70;1.00;;;;;;7389657;19;20082;-68
2022/09/04 13:34:18;;;;;;;1.35;1.02;;;26.20;1.00;;;;;;7370791;19;20022;-67
2022/09/04 13:36:58;;;;;;;1.17;0.98;;;26.50;1.00;;;;;;7367530;19;20011;-67
2022/09/04 13:39:52;;;;;;;3.42;1.20;;;26.50;1.00;;;;;;7370963;19;20515;-66
2022/09/04 13:42:42;;;;;;;1.90;1.10;;;26.80;1.00;;;;;;7372790;19;20117;-66
2022/09/04 13:45:14;;;;;;;1.40;1.17;;;26.90;1.00;;;;;;7364900;19;20011;-67
2022/09/04 13:47:55;;;;;;;1.10;1.00;;;26.80;1.00;;;;;;7367059;19;20081;-68
2022/09/04 13:50:31;;;;;;;1.20;0.80;;;26.80;1.00;;;;;;7370184;19;20033;-67
2022/09/04 13:53:09;;;;;;;2.22;1.17;;;26.70;1.00;;;;;;7371122;19;20404;-68
2022/09/04 13:55:43;;;;;;;2.05;1.13;;;26.40;1.00;;;;;;7366337;19;20081;-67
2022/09/04 13:58:20;;;;;;;1.77;1.20;;;26.70;1.00;;;;;;7385721;19;20022;-67
2022/09/04 14:00:53;;;;;;;2.50;1.40;;;26.50;1.00;;;;;;7371285;19;20010;-68
2022/09/04 14:03:34;;;;;;;1.70;0.90;;;26.60;1.00;;;;;;7371304;19;20010;-68
2022/09/04 14:06:06;;;;;;;1.25;0.90;;;26.40;1.00;;;;;;7362988;19;20033;-67
2022/09/04 14:08:38;;;;;;;2.13;1.30;;;26.40;1.00;;;;;;7367623;19;20078;-67
2022/09/04 14:11:41;;;;;;;1.70;1.10;;;26.20;1.00;;;;;;7368960;19;20015;-67
2022/09/04 14:14:40;;;;;;;1.45;1.08;;;26.30;1.00;;;;;;7367402;19;20094;-68
2022/09/04 14:17:11;;;;;;;1.77;1.25;;;26.50;1.00;;;;;;7364500;19;20011;-66
2022/09/04 14:19:56;;;;;;;2.05;0.88;;;26.20;1.00;;;;;;7368691;19;20509;-67
2022/09/04 14:22:43;;;;;;;1.20;1.10;;;26.20;1.00;;;;;;7368889;19;20018;-66
2022/09/04 14:25:20;;;;;;;1.05;0.95;;;25.90;1.00;;;;;;7389698;19;20065;-68
2022/09/04 14:28:02;;;;;;;1.55;1.10;;;26.00;1.00;;;;;;7361313;19;20011;-68
2022/09/04 14:30:37;;;;;;;1.63;1.00;;;26.20;1.00;;;;;;7367733;19;20384;-67
2022/09/04 14:33:21;;;;;;;2.30;1.23;;;26.50;1.00;;;;;;7369572;19;20014;-67
2022/09/04 14:36:06;;;;;;;3.00;1.20;;;26.50;1.00;;;;;;7364546;19;20040;-67
2022/09/04 14:39:05;;;;;;;2.53;1.42;;;26.60;1.00;;;;;;7366855;19;20015;-68